createdAt,value
2023-08-11T00:02:22.232Z,100407.03
2023-08-11T00:04:51.169Z,100408.91
2023-08-11T00:07:18.780Z,100399.28
2023-08-11T00:09:46.665Z,100398.59
2023-08-11T00:12:14.304Z,100395.91
2023-08-11T00:14:41.993Z,100399.53
2023-08-11T00:17:10.285Z,100392.91
2023-08-11T00:19:37.901Z,100390.41
2023-08-11T00:22:07.249Z,100385.41
2023-08-11T00:24:34.868Z,100387.53
2023-08-11T00:27:02.979Z,100386.84
2023-08-11T00:29:31.861Z,100386.00
2023-08-11T00:31:59.812Z,100385.13
2023-08-11T00:34:27.465Z,100381.63
2023-08-11T00:36:56.323Z,100385.44
2023-08-11T00:39:24.548Z,100384.44
2023-08-11T00:41:52.478Z,100390.78
2023-08-11T00:44:20.092Z,100387.38
2023-08-11T00:46:48.841Z,100398.09
2023-08-11T00:49:16.452Z,100393.75
2023-08-11T00:51:44.043Z,100380.31
2023-08-11T00:54:12.024Z,100379.34
2023-08-11T00:56:43.187Z,100387.38
2023-08-11T00:59:11.146Z,100384.69
2023-08-11T01:01:38.810Z,100378.50
2023-08-11T01:04:08.306Z,100372.28
2023-08-11T01:06:36.031Z,100371.28
2023-08-11T01:09:04.399Z,100367.91
2023-08-11T01:11:31.965Z,100371.88
2023-08-11T01:14:00.461Z,100373.13
2023-08-11T01:16:28.497Z,100369.03
2023-08-11T01:18:56.150Z,100361.38
2023-08-11T01:21:24.001Z,100362.38
2023-08-11T01:23:51.574Z,100363.34
2023-08-11T01:26:19.148Z,100354.47
2023-08-11T01:28:48.469Z,100360.56
2023-08-11T01:31:16.099Z,100360.56
2023-08-11T01:33:43.677Z,100359.56
2023-08-11T01:36:11.249Z,100366.75
2023-08-11T01:38:38.869Z,100370.41
2023-08-11T01:41:07.772Z,100366.16
2023-08-11T01:43:35.385Z,100367.16
2023-08-11T01:46:03.072Z,100364.75
2023-08-11T01:48:30.683Z,100353.19
2023-08-11T01:50:58.251Z,100358.84
2023-08-11T01:53:25.919Z,100357.13
2023-08-11T01:55:53.513Z,100366.31
2023-08-11T01:58:21.556Z,100353.19
2023-08-11T02:00:49.187Z,100355.28
2023-08-11T02:03:16.809Z,100355.53
2023-08-11T02:05:45.197Z,100345.94
2023-08-11T02:08:18.684Z,100347.91
2023-08-11T02:10:47.230Z,100353.41
2023-08-11T02:13:14.893Z,100353.56
2023-08-11T02:15:42.556Z,100357.94
2023-08-11T02:18:10.738Z,100354.56
2023-08-11T02:20:38.786Z,100352.88
2023-08-11T02:23:06.415Z,100348.47
2023-08-11T02:25:35.056Z,100356.50
2023-08-11T02:28:02.832Z,100355.78
2023-08-11T02:30:31.551Z,100347.75
2023-08-11T02:32:59.161Z,100358.47
2023-08-11T02:35:26.743Z,100364.69
2023-08-11T02:37:54.655Z,100345.19
2023-08-11T02:40:22.270Z,100340.72
2023-08-11T02:42:50.322Z,100336.34
2023-08-11T02:45:17.955Z,100331.97
2023-08-11T02:47:45.559Z,100334.66
2023-08-11T02:50:14.472Z,100335.88
2023-08-11T02:52:42.283Z,100332.50
2023-08-11T02:55:10.212Z,100321.22
2023-08-11T02:57:38.105Z,100327.69
2023-08-11T03:00:09.470Z,100324.31
2023-08-11T03:02:37.105Z,100327.22
2023-08-11T03:05:05.166Z,100328.22
2023-08-11T03:07:33.272Z,100328.50
2023-08-11T03:10:00.827Z,100317.91
2023-08-11T03:12:29.052Z,100318.91
2023-08-11T03:14:56.666Z,100314.63
2023-08-11T03:17:24.325Z,100318.28
2023-08-11T03:19:52.914Z,100311.25
2023-08-11T03:22:21.039Z,100320.25
2023-08-11T03:24:48.619Z,100319.28
2023-08-11T03:27:17.443Z,100314.91
2023-08-11T03:29:45.045Z,100319.41
2023-08-11T03:32:12.759Z,100316.03
2023-08-11T03:34:40.342Z,100318.81
2023-08-11T03:37:08.163Z,100322.66
2023-08-11T03:39:35.733Z,100319.22
2023-08-11T03:42:03.310Z,100317.66
2023-08-11T03:44:31.135Z,100322.91
2023-08-11T03:46:58.710Z,100316.72
2023-08-11T03:49:26.789Z,100310.94
2023-08-11T03:51:54.494Z,100316.31
2023-08-11T03:54:29.023Z,100303.91
2023-08-11T03:57:08.087Z,100315.72
2023-08-11T03:59:35.687Z,100315.97
2023-08-11T04:02:03.497Z,100311.88
2023-08-11T04:04:31.127Z,100314.81
2023-08-11T04:06:58.688Z,100311.44
2023-08-11T04:09:26.797Z,100315.09
2023-08-11T04:11:54.428Z,100305.09
2023-08-11T04:14:22.010Z,100300.44
2023-08-11T04:16:49.958Z,100304.84
2023-08-11T04:19:17.600Z,100308.22
2023-08-11T04:21:45.226Z,100305.53
2023-08-11T04:24:12.836Z,100298.22
2023-08-11T04:26:40.577Z,100304.16
2023-08-11T04:29:08.221Z,100303.03
2023-08-11T04:31:36.162Z,100292.31
2023-08-11T04:34:05.279Z,100304.44
2023-08-11T04:36:33.515Z,100297.97
2023-08-11T04:39:01.191Z,100307.56
2023-08-11T04:41:28.830Z,100303.69
2023-08-11T04:43:56.918Z,100313.13
2023-08-11T04:46:24.705Z,100314.41
2023-08-11T04:48:52.355Z,100317.41
2023-08-11T04:51:20.028Z,100310.53
2023-08-11T04:53:48.024Z,100315.88
2023-08-11T04:56:15.682Z,100308.84
2023-08-11T04:58:43.258Z,100309.72
2023-08-11T05:01:10.886Z,100314.25
2023-08-11T05:03:38.633Z,100312.56
2023-08-11T05:06:07.137Z,100314.25
2023-08-11T05:08:34.902Z,100316.09
2023-08-11T05:11:02.682Z,100311.84
2023-08-11T05:13:30.325Z,100313.69
2023-08-11T05:15:58.427Z,100307.53
2023-08-11T05:18:31.928Z,100314.72
2023-08-11T05:21:06.921Z,100307.47
2023-08-11T05:23:34.711Z,100304.78
2023-08-11T05:26:02.382Z,100302.91
2023-08-11T05:28:30.041Z,100300.19
2023-08-11T05:30:57.854Z,100302.88
2023-08-11T05:33:26.186Z,100289.53
2023-08-11T05:35:53.791Z,100291.34
2023-08-11T05:38:21.598Z,100299.63
2023-08-11T05:40:49.215Z,100300.03
2023-08-11T05:43:16.853Z,100292.41
2023-08-11T05:45:44.878Z,100294.19
2023-08-11T05:48:12.600Z,100294.44
2023-08-11T05:50:40.232Z,100291.03
2023-08-11T05:53:07.946Z,100290.13
2023-08-11T05:55:35.653Z,100296.25
2023-08-11T05:58:04.851Z,100288.81
2023-08-11T06:00:32.812Z,100287.06
2023-08-11T06:03:00.510Z,100293.94
2023-08-11T06:05:28.288Z,100295.38
2023-08-11T06:08:05.768Z,100280.69
2023-08-11T06:10:34.837Z,100286.22
2023-08-11T06:13:02.512Z,100279.41
2023-08-11T06:15:31.560Z,100293.16
2023-08-11T06:17:59.407Z,100291.88
2023-08-11T06:20:40.333Z,100285.53
2023-08-11T06:23:09.153Z,100289.66
2023-08-11T06:25:36.942Z,100288.53
2023-08-11T06:28:04.739Z,100283.34
2023-08-11T06:30:32.498Z,100275.84
2023-08-11T06:33:00.284Z,100277.94
2023-08-11T06:35:28.149Z,100273.75
2023-08-11T06:37:55.841Z,100273.28
2023-08-11T06:40:23.659Z,100276.16
2023-08-11T06:42:51.372Z,100277.38
2023-08-11T06:45:19.006Z,100273.16
2023-08-11T06:47:47.099Z,100270.81
2023-08-11T06:50:14.876Z,100267.63
2023-08-11T06:52:42.607Z,100273.34
2023-08-11T06:55:10.457Z,100268.41
2023-08-11T06:57:38.315Z,100264.19
2023-08-11T07:00:08.550Z,100259.91
2023-08-11T07:02:36.453Z,100257.69
2023-08-11T07:05:04.298Z,100260.53
2023-08-11T07:07:32.117Z,100268.94
2023-08-11T07:10:03.772Z,100264.81
2023-08-11T07:12:34.925Z,100266.59
2023-08-11T07:15:02.690Z,100266.84
2023-08-11T07:17:30.372Z,100268.13
2023-08-11T07:19:58.156Z,100260.66
2023-08-11T07:22:26.233Z,100266.31
2023-08-11T07:24:54.528Z,100267.00
2023-08-11T07:27:22.259Z,100268.56
2023-08-11T07:29:50.096Z,100259.59
2023-08-11T07:32:17.833Z,100262.41
2023-08-11T07:34:45.516Z,100260.72
2023-08-11T07:37:13.865Z,100257.19
2023-08-11T07:39:41.547Z,100265.50
2023-08-11T07:42:11.933Z,100264.00
2023-08-11T07:44:40.050Z,100265.84
2023-08-11T07:47:08.561Z,100265.19
2023-08-11T07:49:37.179Z,100269.94
2023-08-11T07:52:05.030Z,100256.75
2023-08-11T07:54:32.793Z,100267.94
2023-08-11T07:57:00.711Z,100266.56
2023-08-11T07:59:28.603Z,100261.47
2023-08-11T08:01:56.628Z,100260.13
2023-08-11T08:04:24.656Z,100263.56
2023-08-11T08:06:52.880Z,100263.91
2023-08-11T08:09:20.705Z,100262.97
2023-08-11T08:11:48.967Z,100263.28
2023-08-11T08:14:16.833Z,100264.38
2023-08-11T08:16:46.185Z,100272.03
2023-08-11T08:19:15.466Z,100266.72
2023-08-11T08:21:43.846Z,100267.00
2023-08-11T08:24:11.609Z,100263.88
2023-08-11T08:26:39.472Z,100258.72
2023-08-11T08:29:07.670Z,100266.31
2023-08-11T08:31:35.467Z,100262.81
2023-08-11T08:34:04.044Z,100263.28
2023-08-11T08:36:31.971Z,100267.53
2023-08-11T08:39:00.291Z,100273.41
2023-08-11T08:41:31.715Z,100270.09
2023-08-11T08:43:59.396Z,100270.56
2023-08-11T08:46:27.270Z,100277.47
2023-08-11T08:48:55.629Z,100271.84
2023-08-11T08:51:23.524Z,100267.88
2023-08-11T08:53:51.226Z,100258.88
2023-08-11T08:56:19.035Z,100255.31
2023-08-11T08:58:46.913Z,100264.97
2023-08-11T09:01:14.844Z,100261.59
2023-08-11T09:03:43.435Z,100269.16
2023-08-11T09:06:11.572Z,100263.91
2023-08-11T09:08:39.758Z,100263.06
2023-08-11T09:11:08.966Z,100262.63
2023-08-11T09:13:38.001Z,100269.34
2023-08-11T09:16:05.743Z,100268.03
2023-08-11T09:18:33.686Z,100274.13
2023-08-11T09:21:01.660Z,100268.19
2023-08-11T09:23:29.509Z,100266.91
2023-08-11T09:25:57.342Z,100264.56
2023-08-11T09:28:25.271Z,100262.00
2023-08-11T09:30:53.060Z,100270.56
2023-08-11T09:33:21.426Z,100268.41
2023-08-11T09:35:49.596Z,100265.63
2023-08-11T09:38:17.429Z,100264.75
2023-08-11T09:40:46.143Z,100270.81
2023-08-11T09:43:14.034Z,100276.44
2023-08-11T09:45:41.876Z,100276.56
2023-08-11T09:48:09.782Z,100271.56
2023-08-11T09:50:37.928Z,100275.50
2023-08-11T09:53:06.353Z,100266.56
2023-08-11T09:55:34.620Z,100272.69
2023-08-11T09:58:02.610Z,100267.00
2023-08-11T10:00:31.980Z,100266.03
2023-08-11T10:03:00.029Z,100276.97
2023-08-11T10:05:30.583Z,100271.28
2023-08-11T10:07:58.811Z,100269.19
2023-08-11T10:10:28.490Z,100270.63
2023-08-11T10:12:56.353Z,100268.72
2023-08-11T10:15:24.256Z,100269.94
2023-08-11T10:17:52.514Z,100269.31
2023-08-11T10:20:20.537Z,100260.09
2023-08-11T10:22:48.355Z,100259.16
2023-08-11T10:25:16.451Z,100259.59
2023-08-11T10:27:44.383Z,100265.28
2023-08-11T10:30:12.315Z,100249.78
2023-08-11T10:32:40.366Z,100262.38
2023-08-11T10:35:08.438Z,100255.16
2023-08-11T10:37:37.272Z,100250.53
2023-08-11T10:40:05.218Z,100252.34
2023-08-11T10:42:33.176Z,100249.44
2023-08-11T10:45:01.024Z,100246.78
2023-08-11T10:47:28.895Z,100254.69
2023-08-11T10:49:56.745Z,100255.84
2023-08-11T10:52:24.526Z,100246.78
2023-08-11T10:54:52.669Z,100239.59
2023-08-11T10:57:22.007Z,100247.06
2023-08-11T10:59:49.827Z,100237.91
2023-08-11T11:02:17.949Z,100231.25
2023-08-11T11:04:46.061Z,100233.38
2023-08-11T11:07:14.643Z,100232.22
2023-08-11T11:09:42.555Z,100223.31
2023-08-11T11:12:11.871Z,100232.97
2023-08-11T11:14:39.928Z,100234.28
2023-08-11T11:17:07.932Z,100228.38
2023-08-11T11:19:37.021Z,100227.53
2023-08-11T11:22:05.385Z,100229.94
2023-08-11T11:24:33.744Z,100232.41
2023-08-11T11:27:01.552Z,100223.41
2023-08-11T11:29:29.890Z,100221.59
2023-08-11T11:32:01.794Z,100229.44
2023-08-11T11:34:31.102Z,100227.31
2023-08-11T11:36:58.777Z,100228.97
2023-08-11T11:39:26.778Z,100226.34
2023-08-11T11:41:54.566Z,100228.47
2023-08-11T11:44:22.342Z,100236.91
2023-08-11T11:46:50.688Z,100225.78
2023-08-11T11:49:29.310Z,100228.03
2023-08-11T11:51:57.889Z,100217.16
2023-08-11T11:54:26.440Z,100221.94
2023-08-11T11:57:04.301Z,100221.59
2023-08-11T11:59:32.858Z,100221.56
2023-08-11T12:02:01.093Z,100212.16
2023-08-11T12:04:28.927Z,100223.97
2023-08-11T12:06:57.365Z,100224.16
2023-08-11T12:09:25.090Z,100228.38
2023-08-11T12:11:53.186Z,100221.34
2023-08-11T12:14:21.122Z,100217.94
2023-08-11T12:16:49.712Z,100209.69
2023-08-11T12:19:17.627Z,100213.78
2023-08-11T12:21:45.525Z,100209.94
2023-08-11T12:24:13.223Z,100212.31
2023-08-11T12:26:40.944Z,100200.75
2023-08-11T12:29:09.330Z,100200.91
2023-08-11T12:31:37.515Z,100201.94
2023-08-11T12:34:05.244Z,100211.31
2023-08-11T12:36:33.195Z,100207.00
2023-08-11T12:39:00.970Z,100213.84
2023-08-11T12:41:28.920Z,100213.63
2023-08-11T12:43:56.915Z,100218.75
2023-08-11T12:46:24.793Z,100218.25
2023-08-11T12:48:52.888Z,100208.88
2023-08-11T12:51:21.116Z,100212.19
2023-08-11T12:53:49.065Z,100204.53
2023-08-11T12:56:17.040Z,100205.81
2023-08-11T12:58:44.925Z,100202.38
2023-08-11T13:01:14.426Z,100205.03
2023-08-11T13:03:44.234Z,100209.63
2023-08-11T13:06:12.536Z,100205.75
2023-08-11T13:08:40.578Z,100196.34
2023-08-11T13:11:08.441Z,100194.66
2023-08-11T13:13:36.406Z,100193.56
2023-08-11T13:16:04.273Z,100193.81
2023-08-11T13:18:32.533Z,100192.97
2023-08-11T13:21:00.670Z,100193.22
2023-08-11T13:23:30.487Z,100187.13
2023-08-11T13:25:58.488Z,100187.84
2023-08-11T13:28:26.364Z,100190.63
2023-08-11T13:30:59.969Z,100186.44
2023-08-11T13:33:30.022Z,100188.06
2023-08-11T13:35:57.969Z,100196.00
2023-08-11T13:38:27.764Z,100191.41
2023-08-11T13:41:08.106Z,100188.28
2023-08-11T13:43:36.007Z,100189.25
2023-08-11T13:46:03.980Z,100197.09
2023-08-11T13:48:31.976Z,100191.56
2023-08-11T13:50:59.958Z,100178.84
2023-08-11T13:53:27.856Z,100178.59
2023-08-11T13:55:55.780Z,100177.47
2023-08-11T13:58:24.215Z,100173.00
2023-08-11T14:00:53.241Z,100174.00
2023-08-11T14:03:23.628Z,100171.44
2023-08-11T14:05:51.378Z,100169.78
2023-08-11T14:08:20.850Z,100167.28
2023-08-11T14:10:48.904Z,100168.84
2023-08-11T14:13:17.165Z,100172.19
2023-08-11T14:15:46.253Z,100161.44
2023-08-11T14:18:14.494Z,100156.94
2023-08-11T14:20:42.467Z,100167.38
2023-08-11T14:23:10.350Z,100164.09
2023-08-11T14:25:38.321Z,100168.53
2023-08-11T14:28:06.282Z,100163.53
2023-08-11T14:30:34.218Z,100161.84
2023-08-11T14:33:02.088Z,100163.50
2023-08-11T14:35:29.998Z,100165.41
2023-08-11T14:37:57.861Z,100162.91
2023-08-11T14:40:26.487Z,100162.94
2023-08-11T14:42:54.342Z,100157.56
2023-08-11T14:45:22.126Z,100158.41
2023-08-11T14:47:49.962Z,100153.13
2023-08-11T14:50:17.891Z,100151.53
2023-08-11T14:52:46.347Z,100156.81
2023-08-11T14:55:14.241Z,100152.09
2023-08-11T14:57:42.630Z,100152.31
2023-08-11T15:00:10.810Z,100148.50
2023-08-11T15:02:38.980Z,100146.91
2023-08-11T15:05:08.301Z,100145.75
2023-08-11T15:07:36.119Z,100150.13
2023-08-11T15:10:04.443Z,100136.19
2023-08-11T15:12:32.334Z,100137.97
2023-08-11T15:15:00.255Z,100134.50
2023-08-11T15:17:28.881Z,100138.59
2023-08-11T15:19:57.105Z,100140.00
2023-08-11T15:22:25.060Z,100145.03
2023-08-11T15:24:53.120Z,100140.69
2023-08-11T15:27:22.349Z,100136.75
2023-08-11T15:29:51.178Z,100130.78
2023-08-11T15:32:19.574Z,100129.59
2023-08-11T15:34:47.349Z,100127.25
2023-08-11T15:37:15.162Z,100129.16
2023-08-11T15:39:43.136Z,100129.06
2023-08-11T15:42:11.791Z,100130.13
2023-08-11T15:44:39.834Z,100131.75
2023-08-11T15:47:07.757Z,100120.38
2023-08-11T15:49:35.549Z,100105.34
2023-08-11T15:52:03.422Z,100105.16
2023-08-11T15:54:31.731Z,100101.34
2023-08-11T15:56:59.722Z,100104.59
2023-08-11T15:59:27.733Z,100097.41
2023-08-11T16:02:14.756Z,100092.91
2023-08-11T16:04:43.050Z,100092.97
2023-08-11T16:07:10.935Z,100106.00
2023-08-11T16:09:38.746Z,100086.16
2023-08-11T16:12:06.572Z,100096.66
2023-08-11T16:14:34.450Z,100098.28
2023-08-11T16:17:02.564Z,100097.53
2023-08-11T16:19:30.490Z,100082.66
2023-08-11T16:21:58.505Z,100094.81
2023-08-11T16:24:26.682Z,100083.25
2023-08-11T16:26:54.589Z,100080.53
2023-08-11T16:29:23.181Z,100078.47
2023-08-11T16:31:52.616Z,100075.72
2023-08-11T16:34:20.515Z,100077.91
2023-08-11T16:36:48.418Z,100071.53
2023-08-11T16:39:16.281Z,100073.84
2023-08-11T16:41:44.318Z,100077.06
2023-08-11T16:44:12.536Z,100081.44
2023-08-11T16:46:40.849Z,100085.38
2023-08-11T16:49:08.684Z,100079.00
2023-08-11T16:51:36.597Z,100071.72
2023-08-11T16:54:04.750Z,100071.94
2023-08-11T16:56:32.572Z,100075.69
2023-08-11T16:59:00.513Z,100075.28
2023-08-11T17:01:28.536Z,100082.78
2023-08-11T17:03:56.649Z,100090.59
2023-08-11T17:06:25.325Z,100080.97
2023-08-11T17:08:53.312Z,100086.84
2023-08-11T17:11:21.234Z,100078.50
2023-08-11T17:13:49.638Z,100072.66
2023-08-11T17:16:17.709Z,100068.34
2023-08-11T17:18:46.469Z,100065.75
2023-08-11T17:21:20.899Z,100069.13
2023-08-11T17:23:48.870Z,100064.50
2023-08-11T17:26:17.251Z,100072.72
2023-08-11T17:28:45.621Z,100066.41
2023-08-11T17:31:14.530Z,100059.50
2023-08-11T17:33:42.489Z,100056.97
2023-08-11T17:36:10.354Z,100050.06
2023-08-11T17:38:38.362Z,100040.13
2023-08-11T17:41:07.078Z,100041.56
2023-08-11T17:43:34.910Z,100045.59
2023-08-11T17:46:03.008Z,100050.94
2023-08-11T17:48:30.930Z,100044.81
2023-08-11T17:50:58.768Z,100045.59
2023-08-11T17:53:26.711Z,100039.59
2023-08-11T17:55:55.333Z,100048.34
2023-08-11T17:58:23.162Z,100047.00
2023-08-11T18:00:51.132Z,100042.06
2023-08-11T18:03:19.147Z,100050.22
2023-08-11T18:05:47.100Z,100049.31
2023-08-11T18:08:15.266Z,100053.88
2023-08-11T18:10:43.154Z,100054.03
2023-08-11T18:13:10.951Z,100063.47
2023-08-11T18:15:38.909Z,100056.41
2023-08-11T18:18:06.899Z,100060.31
2023-08-11T18:20:35.265Z,100056.88
2023-08-11T18:23:03.240Z,100068.13
2023-08-11T18:25:31.172Z,100066.56
2023-08-11T18:27:59.067Z,100066.63
2023-08-11T18:30:26.817Z,100073.84
2023-08-11T18:32:55.247Z,100072.03
2023-08-11T18:35:23.081Z,100061.41
2023-08-11T18:37:50.780Z,100068.41
2023-08-11T18:40:18.678Z,100067.16
2023-08-11T18:42:46.419Z,100064.03
2023-08-11T18:45:15.012Z,100066.41
2023-08-11T18:47:42.973Z,100068.75
2023-08-11T18:50:10.834Z,100064.56
2023-08-11T18:52:38.784Z,100074.03
2023-08-11T18:55:06.992Z,100071.31
2023-08-11T18:57:35.877Z,100071.56
2023-08-11T19:00:06.342Z,100071.94
2023-08-11T19:02:34.297Z,100071.13
2023-08-11T19:05:02.190Z,100072.19
2023-08-11T19:07:30.017Z,100075.94
2023-08-11T19:09:59.489Z,100079.75
2023-08-11T19:12:27.426Z,100077.44
2023-08-11T19:14:55.425Z,100071.56
2023-08-11T19:17:23.763Z,100073.66
2023-08-11T19:19:51.653Z,100068.16
2023-08-11T19:22:21.192Z,100071.91
2023-08-11T19:24:49.110Z,100072.31
2023-08-11T19:27:17.017Z,100071.25
2023-08-11T19:29:44.974Z,100070.78
2023-08-11T19:32:13.492Z,100078.53
2023-08-11T19:34:41.702Z,100076.41
2023-08-11T19:37:09.630Z,100076.75
2023-08-11T19:39:38.660Z,100067.72
2023-08-11T19:42:06.608Z,100068.50
2023-08-11T19:44:35.631Z,100066.59
2023-08-11T19:47:07.002Z,100066.38
2023-08-11T19:49:34.979Z,100066.34
2023-08-11T19:52:02.822Z,100063.16
2023-08-11T19:54:30.678Z,100065.19
2023-08-11T19:56:58.598Z,100058.88
2023-08-11T19:59:27.058Z,100061.38
2023-08-11T20:01:55.344Z,100056.50
2023-08-11T20:04:24.581Z,100053.34
2023-08-11T20:06:52.531Z,100058.34
2023-08-11T20:09:20.692Z,100050.56
2023-08-11T20:11:48.594Z,100056.41
2023-08-11T20:14:17.105Z,100046.75
2023-08-11T20:16:45.046Z,100049.88
2023-08-11T20:19:12.809Z,100051.75
2023-08-11T20:21:40.790Z,100043.78
2023-08-11T20:24:09.147Z,100040.44
2023-08-11T20:26:37.162Z,100040.00
2023-08-11T20:29:07.799Z,100037.88
2023-08-11T20:31:35.717Z,100035.75
2023-08-11T20:34:03.589Z,100030.72
2023-08-11T20:36:32.195Z,100038.00
2023-08-11T20:38:59.004Z,100032.31
2023-08-11T20:41:26.909Z,100043.56
2023-08-11T20:43:54.821Z,100038.50
2023-08-11T20:46:23.215Z,100042.44
2023-08-11T20:48:52.143Z,100040.31
2023-08-11T20:51:21.196Z,100039.06
2023-08-11T20:53:49.166Z,100046.75
2023-08-11T20:56:17.029Z,100039.16
2023-08-11T20:58:44.940Z,100046.84
2023-08-11T21:01:13.562Z,100038.25
2023-08-11T21:03:41.345Z,100033.00
2023-08-11T21:06:09.149Z,100036.13
2023-08-11T21:08:37.045Z,100026.50
2023-08-11T21:11:04.830Z,100025.00
2023-08-11T21:13:33.059Z,100015.38
2023-08-11T21:16:00.949Z,100015.97
2023-08-11T21:18:28.828Z,100012.16
2023-08-11T21:20:56.640Z,100023.94
2023-08-11T21:23:24.591Z,100021.38
2023-08-11T21:25:54.182Z,100017.75
2023-08-11T21:28:22.308Z,100012.25
2023-08-11T21:30:52.112Z,100013.66
2023-08-11T21:33:23.290Z,100013.22
2023-08-11T21:35:51.062Z,100011.53
2023-08-11T21:38:19.691Z,100008.00
2023-08-11T21:40:47.504Z,100005.28
2023-08-11T21:43:16.201Z,100006.78
2023-08-11T21:45:43.986Z,100002.16
2023-08-11T21:48:12.044Z,100003.84
2023-08-11T21:50:40.389Z,100001.13
2023-08-11T21:53:21.587Z,100004.88
2023-08-11T21:55:51.643Z,100005.28
2023-08-11T21:58:19.537Z,100009.03
2023-08-11T22:00:47.443Z,100005.66
2023-08-11T22:03:15.378Z,100003.97
2023-08-11T22:05:43.373Z,100006.91
2023-08-11T22:08:11.375Z,100006.91
2023-08-11T22:10:39.284Z,100012.09
2023-08-11T22:13:07.049Z,100000.91
2023-08-11T22:15:34.872Z,100009.66
2023-08-11T22:18:02.805Z,100007.81
2023-08-11T22:20:30.550Z,100005.91
2023-08-11T22:22:58.304Z,100010.31
2023-08-11T22:25:26.230Z,100008.22
2023-08-11T22:27:53.916Z,100010.59
2023-08-11T22:30:21.692Z,100004.75
2023-08-11T22:32:49.972Z,100003.53
2023-08-11T22:35:17.682Z,100008.78
2023-08-11T22:37:45.371Z,100025.69
2023-08-11T22:40:13.192Z,100041.78
2023-08-11T22:42:41.015Z,100044.69
2023-08-11T22:45:08.708Z,100045.72
2023-08-11T22:47:36.489Z,100040.94
2023-08-11T22:50:04.741Z,100033.25
2023-08-11T22:52:32.416Z,100039.13
2023-08-11T22:55:00.451Z,100042.94
2023-08-11T22:57:28.164Z,100057.41
2023-08-11T22:59:55.946Z,100066.69
2023-08-11T23:02:24.471Z,100072.34
2023-08-11T23:04:55.384Z,100070.75
2023-08-11T23:07:23.906Z,100066.63
2023-08-11T23:09:51.778Z,100077.06
2023-08-11T23:12:19.427Z,100085.66
2023-08-11T23:14:47.616Z,100084.25
2023-08-11T23:17:16.010Z,100096.78
2023-08-11T23:19:43.773Z,100107.28
2023-08-11T23:22:11.423Z,100117.09
2023-08-11T23:24:39.077Z,100109.81
2023-08-11T23:27:06.709Z,100098.78
2023-08-11T23:29:34.402Z,100097.75
2023-08-11T23:32:02.246Z,100101.28
2023-08-11T23:34:29.850Z,100122.00
2023-08-11T23:36:57.490Z,100116.34
2023-08-11T23:39:25.387Z,100116.34
2023-08-11T23:41:53.288Z,100114.47
2023-08-11T23:44:20.948Z,100107.16
2023-08-11T23:46:48.643Z,100105.31
2023-08-11T23:49:16.389Z,100107.38
2023-08-11T23:51:44.353Z,100102.53
2023-08-11T23:54:12.044Z,100098.50
2023-08-11T23:56:39.670Z,100108.06
2023-08-11T23:59:07.618Z,100112.16
